createdAt,value
2022-11-24T00:01:21.236Z,54.28
2022-11-24T00:04:04.899Z,53.27
2022-11-24T00:06:34.797Z,53.33
2022-11-24T00:09:03.630Z,53.49
2022-11-24T00:11:33.893Z,54.60
2022-11-24T00:14:01.593Z,55.32
2022-11-24T00:16:31.229Z,55.76
2022-11-24T00:19:00.230Z,55.03
2022-11-24T00:21:30.738Z,54.62
2022-11-24T00:23:58.045Z,53.95
2022-11-24T00:26:33.729Z,53.61
2022-11-24T00:29:04.551Z,53.30
2022-11-24T00:31:33.933Z,53.38
2022-11-24T00:34:04.688Z,51.69
2022-11-24T00:36:34.748Z,52.22
2022-11-24T00:39:12.372Z,52.26
2022-11-24T00:41:39.602Z,52.11
2022-11-24T00:44:06.751Z,52.15
2022-11-24T00:46:34.783Z,52.23
2022-11-24T00:49:01.890Z,53.50
2022-11-24T00:51:30.246Z,53.28
2022-11-24T00:53:58.583Z,54.15
2022-11-24T00:56:26.970Z,53.56
2022-11-24T00:58:53.830Z,54.27
2022-11-24T01:01:26.859Z,53.56
2022-11-24T01:03:55.358Z,52.52
2022-11-24T01:06:25.822Z,52.73
2022-11-24T01:08:53.262Z,52.85
2022-11-24T01:11:26.728Z,53.37
2022-11-24T01:13:58.567Z,53.31
2022-11-24T01:16:33.531Z,53.87
2022-11-24T01:19:01.336Z,54.52
2022-11-24T01:21:28.089Z,53.38
2022-11-24T01:23:54.966Z,52.82
2022-11-24T01:26:22.599Z,53.02
2022-11-24T01:28:55.308Z,52.40
2022-11-24T01:31:23.068Z,53.02
2022-11-24T01:33:50.325Z,54.01
2022-11-24T01:36:17.543Z,55.35
2022-11-24T01:38:44.320Z,55.70
2022-11-24T01:41:11.986Z,55.86
2022-11-24T01:43:40.011Z,55.12
2022-11-24T01:46:30.238Z,55.39
2022-11-24T01:49:18.192Z,55.83
2022-11-24T01:52:10.108Z,55.76
2022-11-24T01:54:52.684Z,54.96
2022-11-24T01:57:44.820Z,55.44
2022-11-24T02:00:14.635Z,54.70
2022-11-24T02:02:44.516Z,55.33
2022-11-24T02:05:23.330Z,56.12
2022-11-24T02:07:52.256Z,57.11
2022-11-24T02:10:18.991Z,56.93
2022-11-24T02:12:50.812Z,56.44
2022-11-24T02:15:18.839Z,54.74
2022-11-24T02:17:45.661Z,55.92
2022-11-24T02:20:14.601Z,55.15
2022-11-24T02:23:08.963Z,55.36
2022-11-24T02:26:07.880Z,55.44
2022-11-24T02:28:34.710Z,54.39
2022-11-24T02:31:03.163Z,54.41
2022-11-24T02:33:30.557Z,55.44
2022-11-24T02:35:57.458Z,54.93
2022-11-24T02:38:35.711Z,53.90
2022-11-24T02:41:11.712Z,53.44
2022-11-24T02:43:48.783Z,53.93
2022-11-24T02:46:15.575Z,53.27
2022-11-24T02:48:42.323Z,53.26
2022-11-24T02:51:09.416Z,52.84
2022-11-24T02:53:36.170Z,53.24
2022-11-24T02:56:03.468Z,52.23
2022-11-24T02:58:30.200Z,53.46
2022-11-24T03:00:58.034Z,55.62
2022-11-24T03:03:25.144Z,54.12
2022-11-24T03:05:52.091Z,53.62
2022-11-24T03:08:18.988Z,53.91
2022-11-24T03:10:45.782Z,54.04
2022-11-24T03:13:12.530Z,55.12
2022-11-24T03:15:39.363Z,54.27
2022-11-24T03:18:06.360Z,52.80
2022-11-24T03:20:33.309Z,52.22
2022-11-24T03:23:00.051Z,52.07
2022-11-24T03:25:26.816Z,51.91
2022-11-24T03:27:55.578Z,51.86
2022-11-24T03:30:22.306Z,52.35
2022-11-24T03:32:53.506Z,52.08
2022-11-24T03:35:21.925Z,52.49
2022-11-24T03:37:48.705Z,52.01
2022-11-24T03:40:17.894Z,51.61
2022-11-24T03:42:44.811Z,51.42
2022-11-24T03:45:37.915Z,51.01
2022-11-24T03:47:58.435Z,51.42
2022-11-24T03:50:25.245Z,51.79
2022-11-24T03:52:52.032Z,51.98
2022-11-24T03:55:18.867Z,51.55
2022-11-24T03:57:45.624Z,51.28
2022-11-24T04:00:12.720Z,51.16
2022-11-24T04:02:39.561Z,51.03
2022-11-24T04:05:07.443Z,50.98
2022-11-24T04:07:34.212Z,50.69
2022-11-24T04:10:01.015Z,50.51
2022-11-24T04:12:45.896Z,51.58
2022-11-24T04:15:18.868Z,51.54
2022-11-24T04:17:48.341Z,51.93
2022-11-24T04:20:16.510Z,51.39
2022-11-24T04:22:43.624Z,51.03
2022-11-24T04:25:11.253Z,50.78
2022-11-24T04:27:38.621Z,50.94
2022-11-24T04:30:07.199Z,50.69
2022-11-24T04:32:33.918Z,50.76
2022-11-24T04:35:00.685Z,50.82
2022-11-24T04:37:27.443Z,51.06
2022-11-24T04:39:55.151Z,51.19
2022-11-24T04:42:22.000Z,51.68
2022-11-24T04:44:48.744Z,51.43
2022-11-24T04:47:22.311Z,51.21
2022-11-24T04:49:50.005Z,51.22
2022-11-24T04:52:19.519Z,51.04
2022-11-24T04:54:47.586Z,51.18
2022-11-24T04:57:21.015Z,51.21
2022-11-24T04:59:48.595Z,51.28
2022-11-24T05:02:15.296Z,51.19
2022-11-24T05:04:42.288Z,50.72
2022-11-24T05:07:18.791Z,50.78
2022-11-24T05:10:05.711Z,51.25
2022-11-24T05:12:32.559Z,51.01
2022-11-24T05:15:01.209Z,51.14
2022-11-24T05:17:37.454Z,51.14
2022-11-24T05:20:06.807Z,50.90
2022-11-24T05:22:33.641Z,50.69
2022-11-24T05:25:00.339Z,50.87
2022-11-24T05:27:27.421Z,51.02
2022-11-24T05:29:54.114Z,51.31
2022-11-24T05:32:20.900Z,51.30
2022-11-24T05:34:47.924Z,51.60
2022-11-24T05:37:14.651Z,50.99
2022-11-24T05:39:41.323Z,50.99
2022-11-24T05:42:27.399Z,51.27
2022-11-24T05:44:54.342Z,51.51
2022-11-24T05:47:21.926Z,51.46
2022-11-24T05:49:48.708Z,51.19
2022-11-24T05:52:16.761Z,50.60
2022-11-24T05:54:43.642Z,50.60
2022-11-24T05:57:10.337Z,50.52
2022-11-24T05:59:37.226Z,51.07
2022-11-24T06:02:04.049Z,51.23
2022-11-24T06:04:31.931Z,51.64
2022-11-24T06:06:58.954Z,51.71
2022-11-24T06:09:25.609Z,51.53
2022-11-24T06:11:52.262Z,51.04
2022-11-24T06:14:18.936Z,50.58
2022-11-24T06:16:45.696Z,50.38
2022-11-24T06:19:12.518Z,50.63
2022-11-24T06:21:39.278Z,51.50
2022-11-24T06:24:06.681Z,50.56
2022-11-24T06:26:33.599Z,50.17
2022-11-24T06:29:00.377Z,50.43
2022-11-24T06:31:27.374Z,50.10
2022-11-24T06:33:54.218Z,50.57
2022-11-24T06:36:20.909Z,50.31
2022-11-24T06:38:47.620Z,51.25
2022-11-24T06:41:16.002Z,51.00
2022-11-24T06:43:43.203Z,51.01
2022-11-24T06:46:10.382Z,51.37
2022-11-24T06:48:37.786Z,52.06
2022-11-24T06:51:08.028Z,52.37
2022-11-24T06:53:38.128Z,52.85
2022-11-24T06:56:16.407Z,51.75
2022-11-24T06:58:47.231Z,51.94
2022-11-24T07:01:23.189Z,51.99
2022-11-24T07:03:51.244Z,51.71
2022-11-24T07:06:19.288Z,52.47
2022-11-24T07:08:46.688Z,52.03
2022-11-24T07:11:21.292Z,51.68
2022-11-24T07:13:48.544Z,50.93
2022-11-24T07:16:21.739Z,52.18
2022-11-24T07:18:51.267Z,52.34
2022-11-24T07:21:20.300Z,51.16
2022-11-24T07:23:51.612Z,51.23
2022-11-24T07:26:19.083Z,52.14
2022-11-24T07:28:46.442Z,50.74
2022-11-24T07:31:16.267Z,50.48
2022-11-24T07:33:42.944Z,49.99
2022-11-24T07:36:09.929Z,49.95
2022-11-24T07:38:36.824Z,49.48
2022-11-24T07:41:09.659Z,50.43
2022-11-24T07:43:37.906Z,51.48
2022-11-24T07:46:06.441Z,51.14
2022-11-24T07:48:34.383Z,50.01
2022-11-24T07:51:03.138Z,49.94
2022-11-24T07:53:31.032Z,49.42
2022-11-24T07:56:02.394Z,49.73
2022-11-24T07:58:32.823Z,50.38
2022-11-24T08:01:00.473Z,50.39
2022-11-24T08:03:27.547Z,50.00
2022-11-24T08:06:23.189Z,50.02
2022-11-24T08:08:47.231Z,49.68
2022-11-24T08:11:17.351Z,49.74
2022-11-24T08:13:44.353Z,50.02
2022-11-24T08:16:14.851Z,50.20
2022-11-24T08:18:42.775Z,51.15
2022-11-24T08:21:13.886Z,50.68
2022-11-24T08:23:41.325Z,49.92
2022-11-24T08:26:16.644Z,50.76
2022-11-24T08:28:45.594Z,50.87
2022-11-24T08:31:16.724Z,50.29
2022-11-24T08:33:43.418Z,50.09
2022-11-24T08:36:13.534Z,49.73
2022-11-24T08:38:41.104Z,50.54
2022-11-24T08:41:11.583Z,50.36
2022-11-24T08:43:39.606Z,50.25
2022-11-24T08:46:12.384Z,51.08
2022-11-24T08:48:39.942Z,50.76
2022-11-24T08:51:13.682Z,50.81
2022-11-24T08:53:41.632Z,49.83
2022-11-24T08:56:10.561Z,50.21
2022-11-24T08:58:38.470Z,49.75
2022-11-24T09:01:13.453Z,51.00
2022-11-24T09:03:48.235Z,50.46
2022-11-24T09:06:25.407Z,50.11
2022-11-24T09:08:54.533Z,49.67
2022-11-24T09:11:22.223Z,50.51
2022-11-24T09:13:49.369Z,50.32
2022-11-24T09:16:25.772Z,50.00
2022-11-24T09:19:10.774Z,50.10
2022-11-24T09:21:38.845Z,50.11
2022-11-24T09:24:10.301Z,50.39
2022-11-24T09:26:41.889Z,51.12
2022-11-24T09:29:13.613Z,50.22
2022-11-24T09:31:41.019Z,49.96
2022-11-24T09:34:13.075Z,48.99
2022-11-24T09:36:40.011Z,49.03
2022-11-24T09:39:07.015Z,50.00
2022-11-24T09:42:14.229Z,48.88
2022-11-24T09:45:08.334Z,48.53
2022-11-24T09:48:01.478Z,48.70
2022-11-24T09:50:37.578Z,48.62
2022-11-24T09:53:22.923Z,48.56
2022-11-24T09:55:58.422Z,48.09
2022-11-24T09:58:40.958Z,47.95
2022-11-24T10:01:30.773Z,48.23
2022-11-24T10:04:04.254Z,48.14
2022-11-24T10:06:48.018Z,48.39
2022-11-24T10:09:40.093Z,48.03
2022-11-24T10:12:47.599Z,48.13
2022-11-24T10:15:34.173Z,47.95
2022-11-24T10:18:50.400Z,48.49
2022-11-24T10:21:41.581Z,47.65
2022-11-24T10:24:59.551Z,47.83
2022-11-24T10:27:38.667Z,47.73
2022-11-24T10:30:21.774Z,48.06
2022-11-24T10:33:06.147Z,48.21
2022-11-24T10:36:02.794Z,47.89
2022-11-24T10:38:37.900Z,48.83
2022-11-24T10:41:10.944Z,48.06
2022-11-24T10:43:40.321Z,47.72
2022-11-24T10:46:39.516Z,47.66
2022-11-24T10:49:06.489Z,47.64
2022-11-24T10:51:41.675Z,47.03
2022-11-24T10:54:22.289Z,47.80
2022-11-24T10:56:52.931Z,48.14
2022-11-24T10:59:25.346Z,49.16
2022-11-24T11:01:53.091Z,48.86
2022-11-24T11:04:34.820Z,48.47
2022-11-24T11:07:21.217Z,48.22
2022-11-24T11:09:48.621Z,48.73
2022-11-24T11:15:29.768Z,48.07
2022-11-24T11:18:01.762Z,47.38
2022-11-24T11:20:32.976Z,48.56
2022-11-24T11:23:16.764Z,47.79
2022-11-24T11:25:43.914Z,48.06
2022-11-24T11:28:30.895Z,47.40
2022-11-24T11:31:17.229Z,47.37
2022-11-24T11:34:06.296Z,46.68
2022-11-24T11:36:46.346Z,47.22
2022-11-24T11:39:32.757Z,46.87
2022-11-24T11:43:03.652Z,46.96
2022-11-24T11:45:31.852Z,47.50
2022-11-24T11:48:01.387Z,46.57
2022-11-24T11:51:21.843Z,46.59
2022-11-24T11:54:08.086Z,47.14
2022-11-24T11:56:45.007Z,46.49
2022-11-24T11:59:33.347Z,46.63
2022-11-24T12:02:32.333Z,46.48
2022-11-24T12:05:10.831Z,46.35
2022-11-24T12:07:56.633Z,46.22
2022-11-24T12:10:48.130Z,46.77
2022-11-24T12:13:36.083Z,46.44
2022-11-24T12:16:35.770Z,46.50
2022-11-24T12:19:39.803Z,47.22
2022-11-24T12:22:16.991Z,47.38
2022-11-24T12:25:09.778Z,49.69
2022-11-24T12:28:18.587Z,48.12
2022-11-24T12:31:06.493Z,47.64
2022-11-24T12:34:15.089Z,47.47
2022-11-24T12:37:19.789Z,46.96
2022-11-24T12:40:16.253Z,47.37
2022-11-24T12:43:02.353Z,47.33
2022-11-24T12:46:11.186Z,47.50
2022-11-24T12:49:02.693Z,49.13
2022-11-24T12:51:39.720Z,47.31
2022-11-24T12:54:14.365Z,47.05
2022-11-24T12:57:02.296Z,46.63
2022-11-24T12:59:35.122Z,47.79
2022-11-24T13:02:37.288Z,48.19
2022-11-24T13:05:33.099Z,47.02
2022-11-24T13:08:03.288Z,47.23
2022-11-24T13:10:57.877Z,47.08
2022-11-24T13:13:48.188Z,47.16
2022-11-24T13:19:13.650Z,46.67
2022-11-24T13:21:40.327Z,45.98
2022-11-24T13:24:25.401Z,45.95
2022-11-24T13:27:14.084Z,46.12
2022-11-24T13:29:51.660Z,45.70
2022-11-24T13:32:18.481Z,45.98
2022-11-24T13:34:54.911Z,45.41
2022-11-24T13:37:33.974Z,46.50
2022-11-24T13:40:31.701Z,45.89
2022-11-24T13:43:00.349Z,46.01
2022-11-24T13:45:39.680Z,46.66
2022-11-24T13:48:22.487Z,46.06
2022-11-24T13:50:49.509Z,46.67
2022-11-24T13:53:22.287Z,46.72
2022-11-24T13:56:25.015Z,46.44
2022-11-24T13:59:17.137Z,46.16
2022-11-24T14:01:46.712Z,46.43
2022-11-24T14:04:33.844Z,47.12
2022-11-24T14:07:11.891Z,46.39
2022-11-24T14:09:51.912Z,46.55
2022-11-24T14:12:26.587Z,46.94
2022-11-24T14:14:57.475Z,46.80
2022-11-24T14:17:28.374Z,46.98
2022-11-24T14:19:57.758Z,47.18
2022-11-24T14:22:40.289Z,47.27
2022-11-24T14:25:29.855Z,47.82
2022-11-24T14:27:57.384Z,47.69
2022-11-24T14:30:26.242Z,48.10
2022-11-24T14:32:58.089Z,47.74
2022-11-24T14:35:34.616Z,47.69
2022-11-24T14:38:03.731Z,48.03
2022-11-24T14:40:46.600Z,47.93
2022-11-24T14:43:29.257Z,47.82
2022-11-24T14:46:18.365Z,47.80
2022-11-24T14:48:51.471Z,47.85
2022-11-24T14:51:23.920Z,47.59
2022-11-24T14:53:55.171Z,47.63
2022-11-24T14:56:25.973Z,47.59
2022-11-24T14:58:54.486Z,47.92
2022-11-24T15:01:27.534Z,48.84
2022-11-24T15:04:39.361Z,48.78
2022-11-24T15:07:21.751Z,48.51
2022-11-24T15:09:53.903Z,49.09
2022-11-24T15:12:41.334Z,48.92
2022-11-24T15:15:14.004Z,49.26
2022-11-24T15:17:53.213Z,49.56
2022-11-24T15:20:37.444Z,49.27
2022-11-24T15:23:28.040Z,49.65
2022-11-24T15:25:57.314Z,49.38
2022-11-24T15:28:27.765Z,49.53
2022-11-24T15:30:59.247Z,49.89
2022-11-24T15:33:26.476Z,49.51
2022-11-24T15:35:53.125Z,49.52
2022-11-24T15:38:20.011Z,49.46
2022-11-24T15:40:50.592Z,49.41
2022-11-24T15:43:43.539Z,49.75
2022-11-24T15:46:10.503Z,50.00
2022-11-24T15:48:37.640Z,50.56
2022-11-24T15:51:14.939Z,50.31
2022-11-24T15:53:49.937Z,50.78
2022-11-24T15:56:33.835Z,51.15
2022-11-24T15:59:01.799Z,51.06
2022-11-24T16:01:34.259Z,50.86
2022-11-24T16:04:01.826Z,51.51
2022-11-24T16:06:28.603Z,52.15
2022-11-24T16:08:55.421Z,51.77
2022-11-24T16:11:23.159Z,50.70
2022-11-24T16:13:53.228Z,50.23
2022-11-24T16:16:23.581Z,50.97
2022-11-24T16:18:50.753Z,51.50
2022-11-24T16:21:17.773Z,50.79
2022-11-24T16:23:45.518Z,50.48
2022-11-24T16:26:12.285Z,50.69
2022-11-24T16:28:39.151Z,50.37
2022-11-24T16:31:06.046Z,50.86
2022-11-24T16:33:32.710Z,50.75
2022-11-24T16:35:59.450Z,50.50
2022-11-24T16:38:26.189Z,50.62
2022-11-24T16:40:56.241Z,50.31
2022-11-24T16:43:24.299Z,50.40
2022-11-24T16:46:15.969Z,50.86
2022-11-24T16:48:44.453Z,50.38
2022-11-24T16:51:12.356Z,51.46
2022-11-24T16:53:39.791Z,51.49
2022-11-24T16:56:07.305Z,51.77
2022-11-24T16:58:37.331Z,51.43
2022-11-24T17:01:07.598Z,51.46
2022-11-24T17:03:37.854Z,51.05
2022-11-24T17:06:07.549Z,50.88
2022-11-24T17:08:36.398Z,50.43
2022-11-24T17:11:13.986Z,50.23
2022-11-24T17:13:41.230Z,50.07
2022-11-24T17:16:11.869Z,50.21
2022-11-24T17:18:39.163Z,50.35
2022-11-24T17:21:10.869Z,50.68
2022-11-24T17:23:38.081Z,49.84
2022-11-24T17:26:12.425Z,49.47
2022-11-24T17:28:39.632Z,49.23
2022-11-24T17:31:17.906Z,49.53
2022-11-24T17:33:44.722Z,49.81
2022-11-24T17:36:11.429Z,49.84
2022-11-24T17:38:38.152Z,49.57
2022-11-24T17:41:05.192Z,49.50
2022-11-24T17:43:32.700Z,49.34
2022-11-24T17:46:03.001Z,50.18
2022-11-24T17:48:31.538Z,50.22
2022-11-24T17:51:10.264Z,50.28
2022-11-24T17:53:37.531Z,50.02
2022-11-24T17:56:04.764Z,50.08
2022-11-24T17:58:37.176Z,50.35
2022-11-24T18:01:07.743Z,50.91
2022-11-24T18:03:34.514Z,50.58
2022-11-24T18:06:19.833Z,50.94
2022-11-24T18:08:47.274Z,51.54
2022-11-24T18:11:24.643Z,51.80
2022-11-24T18:14:00.205Z,51.35
2022-11-24T18:16:29.652Z,50.97
2022-11-24T18:19:08.272Z,50.89
2022-11-24T18:21:37.921Z,50.64
2022-11-24T18:24:04.863Z,50.52
2022-11-24T18:26:31.585Z,51.07
2022-11-24T18:28:58.273Z,51.81
2022-11-24T18:31:26.147Z,51.53
2022-11-24T18:33:52.940Z,51.54
2022-11-24T18:36:23.579Z,52.66
2022-11-24T18:38:53.885Z,52.61
2022-11-24T18:41:21.514Z,52.17
2022-11-24T18:43:49.026Z,51.83
2022-11-24T18:46:19.342Z,52.13
2022-11-24T18:48:46.149Z,51.23
2022-11-24T18:51:14.590Z,51.43
2022-11-24T18:53:43.378Z,51.34
2022-11-24T18:56:16.642Z,51.46
2022-11-24T18:58:44.546Z,51.21
2022-11-24T19:01:20.348Z,51.11
2022-11-24T19:03:50.805Z,51.60
2022-11-24T19:06:28.939Z,51.47
2022-11-24T19:08:56.059Z,51.24
2022-11-24T19:11:29.625Z,51.64
2022-11-24T19:13:56.600Z,52.17
2022-11-24T19:16:24.390Z,52.21
2022-11-24T19:18:54.363Z,52.62
2022-11-24T19:21:22.903Z,51.78
2022-11-24T19:23:50.024Z,51.71
2022-11-24T19:26:17.374Z,51.45
2022-11-24T19:28:44.655Z,51.47
2022-11-24T19:31:14.503Z,51.79
2022-11-24T19:33:42.607Z,51.35
2022-11-24T19:36:16.355Z,51.26
2022-11-24T19:38:49.870Z,51.53
2022-11-24T19:41:19.389Z,51.97
2022-11-24T19:43:47.177Z,52.00
2022-11-24T19:46:17.726Z,52.36
2022-11-24T19:48:47.147Z,53.97
2022-11-24T19:51:17.354Z,54.97
2022-11-24T19:53:45.159Z,54.83
2022-11-24T19:56:22.386Z,53.90
2022-11-24T19:58:51.072Z,54.04
2022-11-24T20:01:30.153Z,53.66
2022-11-24T20:04:02.832Z,53.47
2022-11-24T20:06:41.952Z,52.96
2022-11-24T20:09:12.913Z,52.60
2022-11-24T20:11:39.949Z,52.31
2022-11-24T20:14:09.880Z,52.64
2022-11-24T20:16:36.872Z,52.00
2022-11-24T20:19:11.661Z,51.83
2022-11-24T20:21:41.412Z,51.52
2022-11-24T20:24:13.826Z,51.80
2022-11-24T20:26:51.250Z,51.86
2022-11-24T20:29:18.846Z,52.07
2022-11-24T20:31:49.538Z,52.33
2022-11-24T20:34:17.435Z,51.99
2022-11-24T20:36:46.026Z,51.40
2022-11-24T20:39:21.663Z,52.42
2022-11-24T20:41:48.629Z,52.50
2022-11-24T20:44:18.294Z,51.90
2022-11-24T20:46:46.548Z,52.40
2022-11-24T20:49:17.320Z,53.64
2022-11-24T20:51:46.869Z,52.24
2022-11-24T20:54:16.835Z,53.43
2022-11-24T20:56:44.622Z,52.87
2022-11-24T20:59:15.756Z,51.79
2022-11-24T21:01:45.387Z,51.74
2022-11-24T21:04:20.438Z,51.12
2022-11-24T21:06:47.784Z,51.59
2022-11-24T21:09:14.536Z,51.81
2022-11-24T21:11:41.371Z,51.44
2022-11-24T21:14:08.736Z,51.27
2022-11-24T21:16:38.998Z,50.84
2022-11-24T21:19:14.064Z,50.74
2022-11-24T21:21:42.467Z,50.82
2022-11-24T21:24:18.049Z,51.30
2022-11-24T21:26:50.327Z,51.19
2022-11-24T21:29:19.163Z,51.38
2022-11-24T21:31:46.223Z,50.82
2022-11-24T21:34:18.545Z,51.48
2022-11-24T21:36:45.394Z,51.53
2022-11-24T21:39:14.287Z,51.15
2022-11-24T21:41:41.867Z,51.16
2022-11-24T21:44:10.372Z,51.49
2022-11-24T21:46:43.929Z,51.52
2022-11-24T21:49:13.193Z,51.23
2022-11-24T21:51:39.993Z,50.96
2022-11-24T21:54:06.949Z,50.86
2022-11-24T21:56:33.632Z,50.50
2022-11-24T21:59:00.310Z,50.34
2022-11-24T22:01:28.725Z,50.82
2022-11-24T22:03:55.912Z,50.23
2022-11-24T22:06:23.268Z,50.41
2022-11-24T22:08:50.150Z,50.06
2022-11-24T22:11:23.675Z,50.14
2022-11-24T22:13:51.441Z,50.49
2022-11-24T22:16:21.306Z,50.68
2022-11-24T22:18:49.013Z,50.72
2022-11-24T22:21:19.697Z,50.60
2022-11-24T22:23:50.024Z,50.60
2022-11-24T22:26:20.770Z,51.30
2022-11-24T22:28:48.198Z,51.22
2022-11-24T22:31:22.235Z,51.09
2022-11-24T22:33:50.232Z,51.06
2022-11-24T22:36:20.740Z,50.81
2022-11-24T22:38:52.433Z,50.98
2022-11-24T22:41:19.094Z,51.13
2022-11-24T22:43:46.306Z,50.72
2022-11-24T22:46:18.985Z,50.70
2022-11-24T22:48:47.772Z,50.91
2022-11-24T22:51:24.868Z,50.88
2022-11-24T22:53:54.958Z,51.20
2022-11-24T22:56:22.307Z,51.31
2022-11-24T22:58:49.724Z,51.10
2022-11-24T23:01:24.342Z,52.23
2022-11-24T23:03:54.308Z,51.83
2022-11-24T23:06:27.068Z,51.44
2022-11-24T23:08:55.413Z,50.99
2022-11-24T23:11:31.595Z,51.27
2022-11-24T23:14:02.927Z,51.37
2022-11-24T23:16:30.116Z,50.93
2022-11-24T23:18:57.439Z,50.72
2022-11-24T23:21:28.282Z,50.66
2022-11-24T23:23:55.853Z,50.73
2022-11-24T23:26:32.616Z,50.65
2022-11-24T23:28:59.897Z,50.38
2022-11-24T23:31:28.782Z,50.49
2022-11-24T23:34:01.988Z,51.47
2022-11-24T23:36:30.435Z,51.14
2022-11-24T23:39:03.272Z,51.09
2022-11-24T23:41:31.427Z,50.56
2022-11-24T23:43:58.888Z,50.91
2022-11-24T23:46:27.207Z,50.92
2022-11-24T23:48:55.546Z,51.74
2022-11-24T23:51:32.216Z,51.66
2022-11-24T23:54:00.201Z,52.87
2022-11-24T23:56:33.094Z,52.84
2022-11-24T23:59:02.322Z,53.20
